createdAt,value
2018-12-14T00:02:20.640Z,102502.38
2018-12-14T00:04:49.533Z,102507.73
2018-12-14T00:07:18.445Z,102502.87
2018-12-14T00:09:47.666Z,102504.28
2018-12-14T00:12:16.689Z,102502.38
2018-12-14T00:14:45.596Z,102503.42
2018-12-14T00:17:15.152Z,102501.59
2018-12-14T00:19:44.001Z,102501.30
2018-12-14T00:22:13.476Z,102503.75
2018-12-14T00:24:42.417Z,102503.52
2018-12-14T00:27:11.651Z,102499.42
2018-12-14T00:29:40.862Z,102509.17
2018-12-14T00:32:10.508Z,102508.58
2018-12-14T00:34:39.512Z,102510.48
2018-12-14T00:37:08.398Z,102515.14
2018-12-14T00:39:37.987Z,102513.33
2018-12-14T00:42:07.431Z,102508.73
2018-12-14T00:44:36.299Z,102508.64
2018-12-14T00:47:05.419Z,102511.86
2018-12-14T00:49:34.374Z,102511.07
2018-12-14T00:52:03.359Z,102510.52
2018-12-14T00:54:32.365Z,102513.20
2018-12-14T00:57:01.248Z,102502.73
2018-12-14T00:59:30.260Z,102506.22
2018-12-14T01:01:59.338Z,102507.59
2018-12-14T01:04:28.241Z,102511.33
2018-12-14T01:06:57.151Z,102511.07
2018-12-14T01:09:26.757Z,102514.03
2018-12-14T01:11:58.313Z,102514.91
2018-12-14T01:14:26.891Z,102528.08
2018-12-14T01:16:55.823Z,102525.62
2018-12-14T01:19:24.743Z,102515.90
2018-12-14T01:21:53.759Z,102523.72
2018-12-14T01:24:22.811Z,102522.63
2018-12-14T01:26:51.740Z,102520.76
2018-12-14T01:29:20.700Z,102516.69
2018-12-14T01:31:49.555Z,102517.73
2018-12-14T01:34:18.531Z,102513.99
2018-12-14T01:36:47.889Z,102515.87
2018-12-14T01:39:17.062Z,102516.12
2018-12-14T01:41:45.926Z,102517.45
2018-12-14T01:44:15.265Z,102518.80
2018-12-14T01:46:44.854Z,102512.84
2018-12-14T01:49:13.830Z,102517.48
2018-12-14T01:51:42.854Z,102521.25
2018-12-14T01:54:12.267Z,102520.95
2018-12-14T01:56:41.559Z,102518.23
2018-12-14T01:59:10.602Z,102512.03
2018-12-14T02:01:39.898Z,102512.09
2018-12-14T02:04:08.830Z,102506.67
2018-12-14T02:06:37.893Z,102514.78
2018-12-14T02:09:07.515Z,102512.88
2018-12-14T02:11:36.386Z,102511.56
2018-12-14T02:14:05.525Z,102512.84
2018-12-14T02:16:34.377Z,102510.16
2018-12-14T02:19:03.288Z,102517.41
2018-12-14T02:21:32.318Z,102519.55
2018-12-14T02:24:01.283Z,102520.36
2018-12-14T02:26:30.345Z,102519.77
2018-12-14T02:28:59.316Z,102513.30
2018-12-14T02:31:28.396Z,102519.28
2018-12-14T02:33:57.293Z,102515.08
2018-12-14T02:36:26.753Z,102517.45
2018-12-14T02:38:56.007Z,102522.04
2018-12-14T02:41:25.037Z,102523.98
2018-12-14T02:43:53.922Z,102526.08
2018-12-14T02:46:22.792Z,102516.06
2018-12-14T02:48:51.761Z,102519.31
2018-12-14T02:51:20.770Z,102524.70
2018-12-14T02:53:49.658Z,102523.39
2018-12-14T02:56:18.662Z,102517.97
2018-12-14T02:58:47.603Z,102518.75
2018-12-14T03:01:16.584Z,102516.59
2018-12-14T03:03:45.562Z,102515.77
2018-12-14T03:06:14.783Z,102519.80
2018-12-14T03:08:43.650Z,102519.21
2018-12-14T03:11:12.560Z,102521.71
2018-12-14T03:13:41.473Z,102520.10
2018-12-14T03:16:10.555Z,102520.92
2018-12-14T03:18:40.129Z,102521.41
2018-12-14T03:21:09.016Z,102510.61
2018-12-14T03:23:37.946Z,102511.92
2018-12-14T03:26:07.005Z,102508.97
2018-12-14T03:28:36.744Z,102506.31
2018-12-14T03:31:05.668Z,102514.69
2018-12-14T03:33:36.596Z,102506.58
2018-12-14T03:36:05.962Z,102513.90
2018-12-14T03:38:35.129Z,102511.92
2018-12-14T03:41:04.121Z,102509.27
2018-12-14T03:43:33.018Z,102512.78
2018-12-14T03:46:08.519Z,102507.89
2018-12-14T03:48:43.264Z,102511.92
2018-12-14T03:51:20.295Z,102509.83
2018-12-14T03:53:55.339Z,102511.99
2018-12-14T03:56:24.281Z,102507.92
2018-12-14T03:58:53.268Z,102511.06
2018-12-14T04:01:22.244Z,102504.34
2018-12-14T04:03:51.210Z,102503.33
2018-12-14T04:06:20.107Z,102508.41
2018-12-14T04:08:49.039Z,102502.20
2018-12-14T04:11:17.992Z,102504.34
2018-12-14T04:13:47.098Z,102501.91
2018-12-14T04:16:16.125Z,102500.30
2018-12-14T04:18:45.094Z,102500.86
2018-12-14T04:21:14.207Z,102498.40
2018-12-14T04:23:43.250Z,102496.82
2018-12-14T04:26:12.772Z,102496.86
2018-12-14T04:28:42.963Z,102502.57
2018-12-14T04:31:12.115Z,102496.30
2018-12-14T04:33:41.136Z,102502.77
2018-12-14T04:36:10.313Z,102498.98
2018-12-14T04:38:39.234Z,102501.13
2018-12-14T04:41:08.258Z,102501.13
2018-12-14T04:43:37.223Z,102502.20
2018-12-14T04:46:06.240Z,102504.04
2018-12-14T04:48:35.214Z,102500.56
2018-12-14T04:51:04.177Z,102502.73
2018-12-14T04:53:33.159Z,102507.85
2018-12-14T04:56:02.457Z,102509.20
2018-12-14T04:58:31.583Z,102498.44
2018-12-14T05:01:00.525Z,102499.28
2018-12-14T05:03:29.500Z,102508.94
2018-12-14T05:05:58.356Z,102503.74
2018-12-14T05:08:27.944Z,102511.59
2018-12-14T05:10:56.857Z,102507.55
2018-12-14T05:13:25.740Z,102498.47
2018-12-14T05:15:54.676Z,102496.82
2018-12-14T05:18:23.698Z,102493.77
2018-12-14T05:20:52.992Z,102489.50
2018-12-14T05:23:22.810Z,102498.88
2018-12-14T05:25:51.838Z,102494.89
2018-12-14T05:28:21.307Z,102501.05
2018-12-14T05:30:50.279Z,102494.63
2018-12-14T05:33:19.325Z,102493.80
2018-12-14T05:35:48.362Z,102495.70
2018-12-14T05:38:17.264Z,102500.79
2018-12-14T05:40:46.275Z,102497.02
2018-12-14T05:43:15.170Z,102504.89
2018-12-14T05:45:44.103Z,102504.04
2018-12-14T05:48:13.132Z,102509.98
2018-12-14T05:50:42.044Z,102520.85
2018-12-14T05:53:11.077Z,102513.56
2018-12-14T05:55:40.655Z,102514.58
2018-12-14T05:58:09.781Z,102519.51
2018-12-14T06:00:38.636Z,102519.14
2018-12-14T06:03:07.623Z,102512.67
2018-12-14T06:05:36.552Z,102517.16
2018-12-14T06:08:05.581Z,102513.94
2018-12-14T06:10:34.717Z,102521.53
2018-12-14T06:13:09.074Z,102516.41
2018-12-14T06:15:34.947Z,102527.44
2018-12-14T06:18:03.905Z,102519.66
2018-12-14T06:20:32.774Z,102529.56
2018-12-14T06:23:01.647Z,102527.66
2018-12-14T06:25:30.656Z,102525.27
2018-12-14T06:28:00.628Z,102519.33
2018-12-14T06:30:29.735Z,102524.19
2018-12-14T06:32:58.607Z,102529.27
2018-12-14T06:35:27.515Z,102527.17
2018-12-14T06:37:56.447Z,102527.70
2018-12-14T06:40:25.285Z,102533.30
2018-12-14T06:42:54.174Z,102540.59
2018-12-14T06:45:23.337Z,102536.30
2018-12-14T06:47:52.162Z,102536.03
2018-12-14T06:50:21.050Z,102539.09
2018-12-14T06:52:50.608Z,102543.92
2018-12-14T06:55:19.594Z,102545.79
2018-12-14T06:57:48.501Z,102549.22
2018-12-14T07:00:17.517Z,102552.18
2018-12-14T07:02:46.434Z,102552.55
2018-12-14T07:05:15.409Z,102558.02
2018-12-14T07:07:44.592Z,102561.97
2018-12-14T07:10:13.485Z,102560.62
2018-12-14T07:12:42.344Z,102564.37
2018-12-14T07:15:11.622Z,102562.57
2018-12-14T07:17:40.485Z,102568.89
2018-12-14T07:20:09.750Z,102574.69
2018-12-14T07:22:38.707Z,102570.69
2018-12-14T07:25:07.783Z,102565.71
2018-12-14T07:27:36.613Z,102571.01
2018-12-14T07:30:06.623Z,102571.70
2018-12-14T07:32:37.996Z,102574.42
2018-12-14T07:35:06.992Z,102576.70
2018-12-14T07:37:36.063Z,102584.20
2018-12-14T07:40:06.354Z,102592.75
2018-12-14T07:42:35.952Z,102588.98
2018-12-14T07:45:06.145Z,102589.84
2018-12-14T07:47:35.039Z,102593.02
2018-12-14T07:50:04.593Z,102584.98
2018-12-14T07:52:33.446Z,102593.80
2018-12-14T07:55:02.351Z,102598.88
2018-12-14T07:57:31.368Z,102601.56
2018-12-14T08:00:00.223Z,102600.17
2018-12-14T08:02:29.192Z,102601.56
2018-12-14T08:04:58.112Z,102605.86
2018-12-14T08:07:27.262Z,102603.17
2018-12-14T08:09:56.224Z,102612.33
2018-12-14T08:12:25.212Z,102612.67
2018-12-14T08:14:54.091Z,102617.23
2018-12-14T08:17:22.939Z,102616.70
2018-12-14T08:19:51.959Z,102615.11
2018-12-14T08:22:20.899Z,102619.14
2018-12-14T08:24:49.788Z,102615.58
2018-12-14T08:27:18.705Z,102626.64
2018-12-14T08:29:47.642Z,102622.70
2018-12-14T08:32:16.966Z,102625.31
2018-12-14T08:34:50.891Z,102634.88
2018-12-14T08:37:17.035Z,102629.34
2018-12-14T08:39:45.959Z,102633.52
2018-12-14T08:42:14.861Z,102636.72
2018-12-14T08:44:43.727Z,102637.25
2018-12-14T08:47:12.781Z,102640.59
2018-12-14T08:49:41.676Z,102648.88
2018-12-14T08:52:10.624Z,102642.37
2018-12-14T08:54:39.757Z,102641.46
2018-12-14T08:57:08.646Z,102647.27
2018-12-14T08:59:37.551Z,102645.06
2018-12-14T09:02:06.696Z,102648.84
2018-12-14T09:04:35.570Z,102648.72
2018-12-14T09:07:04.418Z,102646.06
2018-12-14T09:09:33.348Z,102649.80
2018-12-14T09:12:02.756Z,102651.92
2018-12-14T09:14:32.019Z,102648.58
2018-12-14T09:17:00.936Z,102656.17
2018-12-14T09:19:29.809Z,102652.97
2018-12-14T09:21:58.661Z,102652.48
2018-12-14T09:24:27.633Z,102657.09
2018-12-14T09:26:56.537Z,102655.00
2018-12-14T09:29:25.908Z,102655.95
2018-12-14T09:31:54.934Z,102661.34
2018-12-14T09:34:23.786Z,102659.12
2018-12-14T09:36:52.751Z,102665.11
2018-12-14T09:39:21.710Z,102669.03
2018-12-14T09:41:50.717Z,102677.36
2018-12-14T09:44:19.618Z,102677.36
2018-12-14T09:46:48.643Z,102681.62
2018-12-14T09:49:17.613Z,102682.45
2018-12-14T09:51:46.734Z,102681.88
2018-12-14T09:54:15.790Z,102686.22
2018-12-14T09:56:44.763Z,102686.83
2018-12-14T09:59:13.623Z,102692.73
2018-12-14T10:01:42.620Z,102689.70
2018-12-14T10:04:11.442Z,102689.22
2018-12-14T10:06:40.848Z,102690.40
2018-12-14T10:09:09.846Z,102688.44
2018-12-14T10:11:38.813Z,102684.41
2018-12-14T10:14:08.739Z,102685.52
2018-12-14T10:16:37.703Z,102683.58
2018-12-14T10:19:06.957Z,102680.02
2018-12-14T10:21:36.206Z,102682.48
2018-12-14T10:24:05.087Z,102686.05
2018-12-14T10:26:34.053Z,102680.66
2018-12-14T10:29:03.042Z,102679.62
2018-12-14T10:31:32.056Z,102682.58
2018-12-14T10:34:01.229Z,102665.81
2018-12-14T10:36:30.454Z,102671.46
2018-12-14T10:38:59.446Z,102675.20
2018-12-14T10:41:28.400Z,102675.28
2018-12-14T10:43:57.405Z,102672.06
2018-12-14T10:46:26.304Z,102671.46
2018-12-14T10:48:55.159Z,102666.73
2018-12-14T10:51:24.422Z,102665.41
2018-12-14T10:53:53.398Z,102659.20
2018-12-14T10:56:22.246Z,102666.16
2018-12-14T10:58:51.141Z,102664.89
2018-12-14T11:01:25.562Z,102658.42
2018-12-14T11:03:54.574Z,102657.55
2018-12-14T11:06:23.469Z,102656.81
2018-12-14T11:08:53.326Z,102654.52
2018-12-14T11:11:22.231Z,102646.87
2018-12-14T11:13:51.128Z,102652.55
2018-12-14T11:16:20.263Z,102651.13
2018-12-14T11:18:49.241Z,102648.03
2018-12-14T11:21:18.083Z,102644.21
2018-12-14T11:23:46.968Z,102643.23
2018-12-14T11:26:15.900Z,102642.19
2018-12-14T11:28:44.880Z,102642.27
2018-12-14T11:31:14.547Z,102646.16
2018-12-14T11:33:43.580Z,102641.30
2018-12-14T11:36:13.036Z,102643.98
2018-12-14T11:38:41.929Z,102642.38
2018-12-14T11:41:10.903Z,102638.14
2018-12-14T11:43:39.957Z,102639.83
2018-12-14T11:46:08.919Z,102640.67
2018-12-14T11:48:37.975Z,102633.91
2018-12-14T11:51:09.037Z,102637.03
2018-12-14T11:53:39.915Z,102641.14
2018-12-14T11:56:09.153Z,102638.94
2018-12-14T11:58:38.072Z,102634.77
2018-12-14T12:01:07.047Z,102634.95
2018-12-14T12:03:36.032Z,102637.72
2018-12-14T12:06:05.025Z,102627.47
2018-12-14T12:08:33.959Z,102635.29
2018-12-14T12:11:03.306Z,102636.99
2018-12-14T12:13:32.198Z,102636.29
2018-12-14T12:16:01.159Z,102642.06
2018-12-14T12:18:30.109Z,102643.67
2018-12-14T12:20:58.995Z,102638.84
2018-12-14T12:23:28.175Z,102635.41
2018-12-14T12:25:57.137Z,102641.23
2018-12-14T12:28:26.003Z,102641.50
2018-12-14T12:30:55.039Z,102644.52
2018-12-14T12:33:24.045Z,102648.27
2018-12-14T12:35:53.035Z,102645.40
2018-12-14T12:38:21.953Z,102653.78
2018-12-14T12:40:50.952Z,102656.32
2018-12-14T12:43:19.847Z,102646.06
2018-12-14T12:45:48.777Z,102649.91
2018-12-14T12:48:17.835Z,102650.66
2018-12-14T12:50:46.728Z,102650.11
2018-12-14T12:53:18.490Z,102651.09
2018-12-14T12:55:47.813Z,102644.02
2018-12-14T12:58:17.109Z,102652.25
2018-12-14T13:00:46.077Z,102646.03
2018-12-14T13:03:14.954Z,102637.39
2018-12-14T13:05:43.854Z,102645.97
2018-12-14T13:08:13.070Z,102640.28
2018-12-14T13:10:41.931Z,102645.24
2018-12-14T13:13:10.798Z,102641.17
2018-12-14T13:15:39.722Z,102643.60
2018-12-14T13:18:08.861Z,102649.52
2018-12-14T13:20:38.013Z,102644.36
2018-12-14T13:23:06.966Z,102642.97
2018-12-14T13:25:35.846Z,102645.41
2018-12-14T13:28:05.380Z,102643.72
2018-12-14T13:30:35.043Z,102644.91
2018-12-14T13:33:04.348Z,102651.05
2018-12-14T13:35:33.238Z,102652.47
2018-12-14T13:38:02.717Z,102650.30
2018-12-14T13:40:31.668Z,102659.02
2018-12-14T13:43:00.654Z,102650.23
2018-12-14T13:45:30.001Z,102655.43
2018-12-14T13:47:59.343Z,102654.01
2018-12-14T13:50:28.271Z,102655.13
2018-12-14T13:52:57.169Z,102650.27
2018-12-14T13:55:26.195Z,102650.75
2018-12-14T13:57:55.240Z,102654.42
2018-12-14T14:00:24.267Z,102656.89
2018-12-14T14:02:53.160Z,102658.50
2018-12-14T14:05:22.123Z,102666.50
2018-12-14T14:07:51.037Z,102666.84
2018-12-14T14:10:19.987Z,102672.72
2018-12-14T14:12:48.865Z,102677.09
2018-12-14T14:15:20.869Z,102680.87
2018-12-14T14:17:48.694Z,102677.66
2018-12-14T14:20:18.121Z,102685.66
2018-12-14T14:22:47.353Z,102686.52
2018-12-14T14:25:17.595Z,102690.78
2018-12-14T14:27:46.750Z,102683.22
2018-12-14T14:30:15.654Z,102692.39
2018-12-14T14:32:45.147Z,102694.00
2018-12-14T14:35:14.132Z,102692.05
2018-12-14T14:37:42.979Z,102701.21
2018-12-14T14:40:12.095Z,102694.04
2018-12-14T14:42:41.078Z,102691.21
2018-12-14T14:45:09.999Z,102696.04
2018-12-14T14:47:39.348Z,102698.13
2018-12-14T14:50:10.247Z,102701.73
2018-12-14T14:52:39.250Z,102706.07
2018-12-14T14:55:08.295Z,102704.08
2018-12-14T14:57:38.276Z,102708.25
2018-12-14T15:00:08.546Z,102721.10
2018-12-14T15:02:37.716Z,102713.02
2018-12-14T15:05:07.206Z,102714.63
2018-12-14T15:07:36.424Z,102717.80
2018-12-14T15:10:07.016Z,102718.05
2018-12-14T15:12:35.993Z,102722.05
2018-12-14T15:15:06.767Z,102719.09
2018-12-14T15:17:36.102Z,102724.69
2018-12-14T15:20:05.436Z,102724.13
2018-12-14T15:22:34.342Z,102719.43
2018-12-14T15:25:03.350Z,102724.86
2018-12-14T15:27:32.276Z,102721.17
2018-12-14T15:30:01.287Z,102724.81
2018-12-14T15:32:30.235Z,102731.95
2018-12-14T15:34:59.346Z,102728.42
2018-12-14T15:37:28.458Z,102730.51
2018-12-14T15:39:57.501Z,102732.89
2018-12-14T15:42:26.365Z,102733.92
2018-12-14T15:44:55.313Z,102733.77
2018-12-14T15:47:24.361Z,102740.17
2018-12-14T15:49:53.424Z,102738.73
2018-12-14T15:52:22.423Z,102742.72
2018-12-14T15:54:51.365Z,102740.80
2018-12-14T15:57:20.695Z,102744.89
2018-12-14T15:59:49.587Z,102746.23
2018-12-14T16:02:18.588Z,102745.88
2018-12-14T16:04:47.603Z,102741.57
2018-12-14T16:07:16.577Z,102744.78
2018-12-14T16:09:45.530Z,102745.30
2018-12-14T16:12:14.499Z,102748.55
2018-12-14T16:14:46.216Z,102752.24
2018-12-14T16:17:15.185Z,102747.63
2018-12-14T16:19:44.436Z,102752.23
2018-12-14T16:22:13.496Z,102746.40
2018-12-14T16:24:42.531Z,102750.36
2018-12-14T16:27:11.534Z,102747.56
2018-12-14T16:29:40.437Z,102745.39
2018-12-14T16:32:09.335Z,102746.73
2018-12-14T16:34:38.265Z,102745.08
2018-12-14T16:37:07.256Z,102740.27
2018-12-14T16:39:36.375Z,102738.63
2018-12-14T16:42:05.411Z,102743.48
2018-12-14T16:44:34.343Z,102742.13
2018-12-14T16:47:03.341Z,102749.69
2018-12-14T16:49:32.265Z,102751.13
2018-12-14T16:52:01.376Z,102748.16
2018-12-14T16:54:30.283Z,102746.88
2018-12-14T16:56:59.193Z,102746.99
2018-12-14T16:59:28.225Z,102740.11
2018-12-14T17:01:57.152Z,102743.36
2018-12-14T17:04:26.164Z,102741.38
2018-12-14T17:06:55.162Z,102749.30
2018-12-14T17:09:24.144Z,102750.34
2018-12-14T17:11:52.994Z,102752.40
2018-12-14T17:14:22.161Z,102753.43
2018-12-14T17:16:51.144Z,102749.76
2018-12-14T17:19:20.030Z,102752.35
2018-12-14T17:21:49.054Z,102753.17
2018-12-14T17:24:18.065Z,102755.42
2018-12-14T17:26:47.151Z,102757.86
2018-12-14T17:29:16.539Z,102750.23
2018-12-14T17:31:45.465Z,102753.36
2018-12-14T17:34:14.413Z,102747.09
2018-12-14T17:36:43.444Z,102751.19
2018-12-14T17:39:12.544Z,102756.75
2018-12-14T17:41:41.514Z,102752.79
2018-12-14T17:44:10.644Z,102750.37
2018-12-14T17:46:39.928Z,102756.05
2018-12-14T17:49:08.778Z,102754.97
2018-12-14T17:51:38.003Z,102752.02
2018-12-14T17:54:06.912Z,102750.42
2018-12-14T17:56:35.820Z,102756.50
2018-12-14T17:59:05.308Z,102752.59
2018-12-14T18:01:34.396Z,102755.95
2018-12-14T18:04:05.476Z,102763.50
2018-12-14T18:06:35.860Z,102769.52
2018-12-14T18:09:05.810Z,102773.84
2018-12-14T18:11:35.406Z,102768.67
2018-12-14T18:14:04.415Z,102769.13
2018-12-14T18:16:33.354Z,102778.27
2018-12-14T18:19:02.541Z,102777.06
2018-12-14T18:21:31.500Z,102783.64
2018-12-14T18:24:00.708Z,102784.66
2018-12-14T18:26:29.998Z,102782.50
2018-12-14T18:28:58.877Z,102789.14
2018-12-14T18:31:28.523Z,102787.12
2018-12-14T18:33:57.463Z,102782.89
2018-12-14T18:36:26.357Z,102788.52
2018-12-14T18:38:55.486Z,102790.19
2018-12-14T18:41:24.668Z,102790.36
2018-12-14T18:43:53.653Z,102793.52
2018-12-14T18:46:23.899Z,102797.48
2018-12-14T18:48:52.911Z,102799.47
2018-12-14T18:51:21.903Z,102803.88
2018-12-14T18:53:56.351Z,102803.30
2018-12-14T18:56:26.439Z,102810.08
2018-12-14T18:58:56.326Z,102811.77
2018-12-14T19:01:25.203Z,102815.10
2018-12-14T19:03:57.365Z,102820.45
2018-12-14T19:06:26.687Z,102821.80
2018-12-14T19:08:55.565Z,102830.12
2018-12-14T19:11:24.612Z,102829.69
2018-12-14T19:13:53.511Z,102830.44
2018-12-14T19:16:22.357Z,102836.84
2018-12-14T19:18:51.370Z,102835.84
2018-12-14T19:21:20.383Z,102842.67
2018-12-14T19:23:49.295Z,102844.09
2018-12-14T19:26:18.243Z,102845.76
2018-12-14T19:28:47.415Z,102848.27
2018-12-14T19:31:16.381Z,102844.28
2018-12-14T19:33:45.288Z,102843.83
2018-12-14T19:36:14.429Z,102852.75
2018-12-14T19:38:43.457Z,102843.00
2018-12-14T19:41:12.318Z,102845.58
2018-12-14T19:43:41.547Z,102842.11
2018-12-14T19:46:10.570Z,102844.35
2018-12-14T19:48:39.460Z,102839.97
2018-12-14T19:51:08.341Z,102839.34
2018-12-14T19:53:37.435Z,102845.30
2018-12-14T19:56:06.368Z,102841.47
2018-12-14T19:58:35.251Z,102844.86
2018-12-14T20:01:04.409Z,102848.61
2018-12-14T20:03:33.395Z,102852.31
2018-12-14T20:06:03.450Z,102859.56
2018-12-14T20:08:32.416Z,102859.84
2018-12-14T20:11:01.310Z,102861.50
2018-12-14T20:13:30.421Z,102860.48
2018-12-14T20:16:00.135Z,102866.87
2018-12-14T20:18:29.332Z,102870.69
2018-12-14T20:20:58.475Z,102867.27
2018-12-14T20:23:27.963Z,102864.37
2018-12-14T20:25:57.478Z,102869.11
2018-12-14T20:28:26.739Z,102875.72
2018-12-14T20:30:55.798Z,102876.23
2018-12-14T20:33:25.362Z,102873.60
2018-12-14T20:35:54.414Z,102876.92
2018-12-14T20:38:23.456Z,102874.23
2018-12-14T20:40:53.933Z,102872.97
2018-12-14T20:43:24.314Z,102871.16
2018-12-14T20:45:54.038Z,102873.34
2018-12-14T20:48:28.167Z,102869.68
2018-12-14T20:50:57.183Z,102871.02
2018-12-14T20:53:26.785Z,102875.98
2018-12-14T20:55:56.587Z,102878.59
2018-12-14T20:58:25.918Z,102877.58
2018-12-14T21:00:54.891Z,102875.51
2018-12-14T21:03:23.796Z,102876.78
2018-12-14T21:05:53.307Z,102877.25
2018-12-14T21:08:22.320Z,102878.16
2018-12-14T21:10:51.258Z,102878.51
2018-12-14T21:13:20.766Z,102874.13
2018-12-14T21:15:49.741Z,102876.89
2018-12-14T21:18:18.923Z,102875.93
2018-12-14T21:20:47.951Z,102871.68
2018-12-14T21:23:17.310Z,102873.31
2018-12-14T21:25:47.285Z,102863.48
2018-12-14T21:28:16.354Z,102865.28
2018-12-14T21:30:45.452Z,102866.27
2018-12-14T21:33:15.522Z,102865.48
2018-12-14T21:35:44.755Z,102866.39
2018-12-14T21:38:13.728Z,102862.32
2018-12-14T21:40:42.837Z,102871.73
2018-12-14T21:43:12.109Z,102870.76
2018-12-14T21:45:41.099Z,102865.11
2018-12-14T21:48:10.731Z,102868.19
2018-12-14T21:50:40.200Z,102862.59
2018-12-14T21:53:14.401Z,102867.20
2018-12-14T21:55:40.266Z,102871.30
2018-12-14T21:58:10.354Z,102855.20
2018-12-14T22:00:39.380Z,102851.98
2018-12-14T22:03:08.824Z,102851.94
2018-12-14T22:05:37.862Z,102852.93
2018-12-14T22:08:07.203Z,102852.05
2018-12-14T22:10:36.133Z,102849.91
2018-12-14T22:13:05.055Z,102848.60
2018-12-14T22:15:33.951Z,102840.97
2018-12-14T22:18:03.017Z,102838.83
2018-12-14T22:20:32.672Z,102843.95
2018-12-14T22:23:02.210Z,102845.38
2018-12-14T22:25:31.466Z,102846.30
2018-12-14T22:28:00.995Z,102852.63
2018-12-14T22:30:30.729Z,102846.30
2018-12-14T22:32:59.870Z,102844.00
2018-12-14T22:35:30.045Z,102846.22
2018-12-14T22:37:59.193Z,102848.47
2018-12-14T22:40:28.956Z,102848.22
2018-12-14T22:42:58.577Z,102845.53
2018-12-14T22:45:28.651Z,102841.69
2018-12-14T22:47:57.850Z,102839.41
2018-12-14T22:50:28.282Z,102844.48
2018-12-14T22:52:57.531Z,102839.41
2018-12-14T22:55:28.559Z,102836.23
2018-12-14T22:57:58.074Z,102842.09
2018-12-14T23:00:27.846Z,102841.19
2018-12-14T23:02:57.048Z,102842.47
2018-12-14T23:05:27.559Z,102838.50
2018-12-14T23:07:56.731Z,102834.02
2018-12-14T23:10:25.821Z,102838.95
2018-12-14T23:12:54.942Z,102836.82
2018-12-14T23:15:24.211Z,102834.17
2018-12-14T23:17:53.570Z,102831.88
2018-12-14T23:20:23.035Z,102829.71
2018-12-14T23:22:52.169Z,102837.13
2018-12-14T23:25:21.341Z,102842.65
2018-12-14T23:27:50.249Z,102840.15
2018-12-14T23:30:19.233Z,102843.23
2018-12-14T23:32:48.090Z,102844.30
2018-12-14T23:35:17.005Z,102842.98
2018-12-14T23:37:46.174Z,102844.91
2018-12-14T23:40:15.114Z,102842.74
2018-12-14T23:42:44.450Z,102845.16
2018-12-14T23:45:13.453Z,102847.26
2018-12-14T23:47:42.471Z,102848.63
2018-12-14T23:50:11.996Z,102846.44
2018-12-14T23:52:40.930Z,102843.33
2018-12-14T23:55:10.325Z,102850.37
2018-12-14T23:57:39.824Z,102850.52
